createdAt,value
2019-05-14T00:01:58.277Z,1.30
2019-05-14T00:04:44.479Z,1.70
2019-05-14T00:07:32.103Z,1.60
2019-05-14T00:10:21.842Z,2.03
2019-05-14T00:13:12.035Z,1.60
2019-05-14T00:15:58.262Z,1.60
2019-05-14T00:18:45.469Z,1.80
2019-05-14T00:21:31.836Z,1.63
2019-05-14T00:24:18.098Z,1.43
2019-05-14T00:27:04.294Z,1.50
2019-05-14T00:29:51.843Z,1.63
2019-05-14T00:32:37.872Z,1.50
2019-05-14T00:35:23.913Z,1.50
2019-05-14T00:38:11.890Z,1.60
2019-05-14T00:40:58.129Z,1.70
2019-05-14T00:43:44.150Z,1.60
2019-05-14T00:46:31.566Z,1.43
2019-05-14T00:49:17.817Z,1.40
2019-05-14T00:52:03.844Z,1.67
2019-05-14T00:54:51.993Z,1.73
2019-05-14T00:57:38.014Z,1.30
2019-05-14T01:00:23.964Z,1.60
2019-05-14T01:03:11.120Z,1.47
2019-05-14T01:05:57.333Z,1.53
2019-05-14T01:08:43.316Z,1.50
2019-05-14T01:11:31.339Z,1.50
2019-05-14T01:14:21.108Z,1.40
2019-05-14T01:17:08.650Z,1.50
2019-05-14T01:19:54.740Z,1.40
2019-05-14T01:22:42.233Z,1.50
2019-05-14T01:25:28.513Z,1.47
2019-05-14T01:28:14.705Z,1.47
2019-05-14T01:31:01.294Z,1.73
2019-05-14T01:33:47.854Z,1.40
2019-05-14T01:36:34.126Z,1.57
2019-05-14T01:39:21.324Z,1.70
2019-05-14T01:42:12.179Z,1.50
2019-05-14T01:44:57.442Z,1.53
2019-05-14T01:47:43.504Z,1.70
2019-05-14T01:50:29.490Z,1.70
2019-05-14T01:53:15.472Z,1.60
2019-05-14T01:56:01.900Z,1.60
2019-05-14T01:58:48.210Z,1.77
2019-05-14T02:01:34.389Z,1.80
2019-05-14T02:04:22.099Z,1.73
2019-05-14T02:07:08.174Z,1.60
2019-05-14T02:09:54.233Z,1.70
2019-05-14T02:12:42.302Z,1.50
2019-05-14T02:15:37.123Z,1.80
2019-05-14T02:18:16.466Z,1.60
2019-05-14T02:21:02.596Z,1.90
2019-05-14T02:23:51.360Z,2.00
2019-05-14T02:26:37.950Z,1.80
2019-05-14T02:29:24.261Z,1.90
2019-05-14T02:32:11.075Z,1.80
2019-05-14T02:34:58.936Z,2.03
2019-05-14T02:37:45.443Z,1.80
2019-05-14T02:40:31.865Z,1.80
2019-05-14T02:43:20.086Z,1.67
2019-05-14T02:46:15.894Z,1.70
2019-05-14T02:48:55.370Z,1.70
2019-05-14T02:51:41.658Z,1.80
2019-05-14T02:54:29.811Z,2.40
2019-05-14T02:57:16.124Z,2.13
2019-05-14T03:00:02.172Z,1.90
2019-05-14T03:02:50.007Z,1.73
2019-05-14T03:05:36.197Z,1.80
2019-05-14T03:08:22.530Z,1.47
2019-05-14T03:11:09.456Z,1.83
2019-05-14T03:13:55.547Z,1.50
2019-05-14T03:16:41.525Z,1.57
2019-05-14T03:19:29.828Z,1.83
2019-05-14T03:22:15.226Z,1.70
2019-05-14T03:25:01.206Z,1.83
2019-05-14T03:27:49.677Z,1.70
2019-05-14T03:30:35.370Z,2.20
2019-05-14T03:33:22.532Z,1.77
2019-05-14T03:36:17.231Z,1.50
2019-05-14T03:38:59.390Z,2.30
2019-05-14T03:41:45.206Z,1.80
2019-05-14T03:44:31.373Z,1.70
2019-05-14T03:47:19.598Z,1.80
2019-05-14T03:50:05.623Z,1.90
2019-05-14T03:52:51.579Z,2.00
2019-05-14T03:55:40.308Z,1.67
2019-05-14T03:58:25.827Z,1.90
2019-05-14T04:01:12.897Z,2.00
2019-05-14T04:03:59.489Z,1.57
2019-05-14T04:06:49.371Z,1.80
2019-05-14T04:09:35.813Z,1.80
2019-05-14T04:12:24.237Z,1.90
2019-05-14T04:15:10.307Z,1.70
2019-05-14T04:17:59.688Z,1.60
2019-05-14T04:20:50.048Z,1.77
2019-05-14T04:23:39.697Z,2.10
2019-05-14T04:26:30.250Z,1.70
2019-05-14T04:29:19.717Z,1.80
2019-05-14T04:32:09.395Z,2.13
2019-05-14T04:34:59.441Z,1.90
2019-05-14T04:37:43.691Z,1.93
2019-05-14T04:40:29.896Z,1.97
2019-05-14T04:43:19.043Z,1.90
2019-05-14T04:46:04.441Z,1.80
2019-05-14T04:48:51.307Z,2.00
2019-05-14T04:51:39.696Z,1.80
2019-05-14T04:54:25.280Z,1.90
2019-05-14T04:57:11.399Z,2.10
2019-05-14T04:59:59.828Z,1.80
2019-05-14T05:02:45.543Z,2.07
2019-05-14T05:05:31.580Z,2.10
2019-05-14T05:08:19.996Z,2.40
2019-05-14T05:11:09.073Z,2.03
2019-05-14T05:13:53.902Z,2.17
2019-05-14T05:16:39.881Z,2.30
2019-05-14T05:19:28.844Z,2.33
2019-05-14T05:22:14.069Z,2.20
2019-05-14T05:25:00.088Z,2.40
2019-05-14T05:27:48.546Z,2.13
2019-05-14T05:30:34.506Z,2.47
2019-05-14T05:33:20.515Z,2.20
2019-05-14T05:36:09.195Z,2.60
2019-05-14T05:38:54.765Z,2.30
2019-05-14T05:41:40.835Z,2.50
2019-05-14T05:44:28.698Z,2.80
2019-05-14T05:47:15.042Z,3.10
2019-05-14T05:50:01.137Z,3.57
2019-05-14T05:52:49.886Z,3.43
2019-05-14T05:55:35.474Z,3.43
2019-05-14T05:58:21.417Z,4.07
2019-05-14T06:01:09.568Z,3.70
2019-05-14T06:03:55.633Z,3.57
2019-05-14T06:06:41.815Z,3.47
2019-05-14T06:09:28.635Z,3.30
2019-05-14T06:12:14.953Z,3.60
2019-05-14T06:15:00.930Z,3.20
2019-05-14T06:17:49.020Z,3.30
2019-05-14T06:20:35.169Z,3.33
2019-05-14T06:23:21.154Z,3.40
2019-05-14T06:26:11.364Z,3.03
2019-05-14T06:28:55.593Z,3.03
2019-05-14T06:31:41.578Z,2.93
2019-05-14T06:34:29.125Z,3.60
2019-05-14T06:37:15.504Z,3.40
2019-05-14T06:40:01.465Z,2.80
2019-05-14T06:42:48.590Z,2.60
2019-05-14T06:45:34.622Z,2.20
2019-05-14T06:48:30.777Z,1.70
2019-05-14T06:51:08.980Z,2.00
2019-05-14T06:53:55.398Z,2.20
2019-05-14T06:56:41.345Z,2.20
2019-05-14T06:59:28.764Z,1.90
2019-05-14T07:02:15.208Z,2.53
2019-05-14T07:05:01.285Z,1.77
2019-05-14T07:07:49.375Z,2.20
2019-05-14T07:10:35.401Z,1.80
2019-05-14T07:13:21.570Z,1.90
2019-05-14T07:16:09.051Z,1.90
2019-05-14T07:18:55.450Z,1.87
2019-05-14T07:21:41.534Z,2.00
2019-05-14T07:24:28.335Z,1.60
2019-05-14T07:27:14.813Z,1.60
2019-05-14T07:30:00.641Z,1.73
2019-05-14T07:32:48.460Z,1.60
2019-05-14T07:35:35.241Z,1.63
2019-05-14T07:38:21.547Z,1.50
2019-05-14T07:41:09.253Z,1.87
2019-05-14T07:43:55.764Z,1.80
2019-05-14T07:46:42.327Z,1.97
2019-05-14T07:49:29.145Z,1.70
2019-05-14T07:52:15.414Z,1.53
2019-05-14T07:55:01.622Z,1.80
2019-05-14T07:57:48.182Z,1.50
2019-05-14T08:00:34.483Z,1.73
2019-05-14T08:03:20.855Z,1.77
2019-05-14T08:06:08.361Z,1.90
2019-05-14T08:08:54.645Z,1.57
2019-05-14T08:11:40.701Z,1.93
2019-05-14T08:14:28.902Z,1.80
2019-05-14T08:17:14.890Z,1.80
2019-05-14T08:20:00.806Z,1.77
2019-05-14T08:22:49.002Z,1.87
2019-05-14T08:25:35.044Z,1.40
2019-05-14T08:28:21.321Z,1.67
2019-05-14T08:31:09.506Z,1.70
2019-05-14T08:33:55.422Z,1.57
2019-05-14T08:36:41.349Z,1.90
2019-05-14T08:39:28.623Z,1.70
2019-05-14T08:42:15.134Z,1.60
2019-05-14T08:45:04.886Z,1.50
2019-05-14T08:47:49.142Z,1.80
2019-05-14T08:50:35.273Z,1.80
2019-05-14T08:53:23.266Z,2.00
2019-05-14T08:56:12.311Z,1.73
2019-05-14T08:58:59.120Z,1.60
2019-05-14T09:01:58.734Z,2.00
2019-05-14T09:04:35.992Z,1.70
2019-05-14T09:07:22.437Z,1.40
2019-05-14T09:10:09.603Z,2.00
2019-05-14T09:12:58.205Z,1.53
2019-05-14T09:15:44.199Z,1.70
2019-05-14T09:18:30.242Z,1.47
2019-05-14T09:21:16.325Z,2.20
2019-05-14T09:24:03.189Z,1.80
2019-05-14T09:26:49.322Z,1.60
2019-05-14T09:29:35.236Z,1.60
2019-05-14T09:32:21.124Z,1.77
2019-05-14T09:35:09.823Z,1.47
2019-05-14T09:37:55.831Z,2.00
2019-05-14T09:40:41.825Z,1.33
2019-05-14T09:43:28.630Z,1.50
2019-05-14T09:46:15.026Z,1.50
2019-05-14T09:49:01.005Z,1.73
2019-05-14T09:51:48.901Z,1.60
2019-05-14T09:54:35.177Z,1.77
2019-05-14T09:57:21.196Z,1.50
2019-05-14T10:00:09.047Z,1.50
2019-05-14T10:02:55.386Z,1.57
2019-05-14T10:05:41.363Z,1.60
2019-05-14T10:08:28.600Z,1.60
2019-05-14T10:11:14.697Z,1.90
2019-05-14T10:14:00.641Z,1.60
2019-05-14T10:16:49.060Z,1.50
2019-05-14T10:19:34.815Z,1.63
2019-05-14T10:22:20.878Z,1.57
2019-05-14T10:25:09.222Z,1.50
2019-05-14T10:27:55.645Z,1.50
2019-05-14T10:30:41.938Z,1.70
2019-05-14T10:33:28.748Z,1.70
2019-05-14T10:36:15.145Z,1.63
2019-05-14T10:39:01.281Z,1.60
2019-05-14T10:41:47.537Z,1.57
2019-05-14T10:44:33.539Z,1.40
2019-05-14T10:47:19.606Z,1.60
2019-05-14T10:50:06.006Z,1.97
2019-05-14T10:52:51.768Z,1.70
2019-05-14T10:55:38.674Z,1.53
2019-05-14T10:58:25.196Z,1.63
2019-05-14T11:01:11.595Z,1.70
2019-05-14T11:03:57.898Z,1.60
2019-05-14T11:06:43.924Z,1.33
2019-05-14T11:09:29.857Z,1.50
2019-05-14T11:12:19.027Z,1.70
2019-05-14T11:15:05.023Z,1.50
2019-05-14T11:17:51.161Z,1.60
2019-05-14T11:20:42.261Z,1.60
2019-05-14T11:23:29.396Z,1.90
2019-05-14T11:26:14.408Z,1.50
2019-05-14T11:29:00.463Z,1.50
2019-05-14T11:31:48.460Z,1.40
2019-05-14T11:34:34.533Z,1.43
2019-05-14T11:37:20.501Z,1.33
2019-05-14T11:40:08.729Z,1.60
2019-05-14T11:42:54.538Z,1.50
2019-05-14T11:45:40.581Z,1.73
2019-05-14T11:48:26.740Z,1.63
2019-05-14T11:51:12.721Z,1.60
2019-05-14T11:53:58.918Z,1.67
2019-05-14T11:56:45.127Z,1.60
2019-05-14T11:59:31.275Z,1.40
2019-05-14T12:02:19.418Z,1.70
2019-05-14T12:05:08.856Z,1.40
2019-05-14T12:07:55.341Z,1.50
2019-05-14T12:10:41.599Z,1.37
2019-05-14T12:13:32.105Z,1.50
2019-05-14T12:16:16.229Z,1.40
2019-05-14T12:19:02.160Z,1.20
2019-05-14T12:22:02.791Z,1.80
2019-05-14T12:24:38.548Z,1.40
2019-05-14T12:27:24.346Z,1.30
2019-05-14T12:30:12.099Z,1.20
2019-05-14T12:32:58.988Z,1.40
2019-05-14T12:35:45.002Z,1.40
2019-05-14T12:38:31.143Z,1.30
2019-05-14T12:41:19.296Z,1.27
2019-05-14T12:44:05.358Z,1.17
2019-05-14T12:46:51.454Z,1.13
2019-05-14T12:49:38.759Z,1.10
2019-05-14T12:52:26.175Z,1.23
2019-05-14T12:55:12.637Z,1.30
2019-05-14T12:57:59.782Z,1.20
2019-05-14T13:00:48.488Z,1.13
2019-05-14T13:03:34.059Z,1.40
2019-05-14T13:06:20.252Z,1.10
2019-05-14T13:09:06.262Z,1.17
2019-05-14T13:11:52.233Z,1.20
2019-05-14T13:14:39.458Z,1.20
2019-05-14T13:17:27.972Z,1.10
2019-05-14T13:20:14.248Z,0.90
2019-05-14T13:23:00.519Z,1.00
2019-05-14T13:25:46.518Z,1.00
2019-05-14T13:28:32.549Z,1.00
2019-05-14T13:31:18.725Z,1.10
2019-05-14T13:34:04.651Z,0.93
2019-05-14T13:36:50.827Z,1.07
2019-05-14T13:39:39.782Z,1.03
2019-05-14T13:42:25.153Z,1.00
2019-05-14T13:45:11.961Z,1.00
2019-05-14T13:47:59.096Z,0.90
2019-05-14T13:50:45.329Z,0.90
2019-05-14T13:53:31.375Z,1.00
2019-05-14T13:56:18.945Z,1.07
2019-05-14T13:59:05.203Z,0.90
2019-05-14T14:01:54.671Z,0.80
2019-05-14T14:04:39.358Z,1.00
2019-05-14T14:07:25.313Z,1.00
2019-05-14T14:10:11.442Z,1.00
2019-05-14T14:12:59.770Z,1.00
2019-05-14T14:15:45.574Z,1.00
2019-05-14T14:18:31.590Z,0.80
2019-05-14T14:21:19.598Z,0.83
2019-05-14T14:24:05.833Z,0.97
2019-05-14T14:26:51.827Z,0.90
2019-05-14T14:29:39.537Z,0.83
2019-05-14T14:32:25.611Z,1.00
2019-05-14T14:35:11.756Z,0.97
2019-05-14T14:37:59.134Z,1.00
2019-05-14T14:40:48.482Z,0.70
2019-05-14T14:43:34.246Z,0.97
2019-05-14T14:46:20.726Z,0.90
2019-05-14T14:49:06.634Z,0.97
2019-05-14T14:51:52.718Z,1.10
2019-05-14T14:54:38.745Z,1.00
2019-05-14T14:57:24.797Z,1.10
2019-05-14T15:00:11.587Z,0.97
2019-05-14T15:02:59.688Z,1.20
2019-05-14T15:05:49.535Z,0.87
2019-05-14T15:08:34.239Z,0.90
2019-05-14T15:11:20.311Z,0.80
2019-05-14T15:14:08.460Z,0.97
2019-05-14T15:16:54.311Z,0.80
2019-05-14T15:19:40.441Z,0.80
2019-05-14T15:22:30.454Z,0.93
2019-05-14T15:25:14.541Z,1.00
2019-05-14T15:28:00.838Z,0.80
2019-05-14T15:30:49.628Z,0.90
2019-05-14T15:33:34.930Z,1.20
2019-05-14T15:36:20.987Z,1.00
2019-05-14T15:39:09.744Z,1.00
2019-05-14T15:41:55.611Z,0.80
2019-05-14T15:44:54.473Z,1.00
2019-05-14T15:47:30.049Z,1.00
2019-05-14T15:50:16.157Z,1.10
2019-05-14T15:53:02.146Z,0.90
2019-05-14T15:55:49.086Z,1.13
2019-05-14T15:58:35.281Z,1.10
2019-05-14T16:01:21.389Z,1.13
2019-05-14T16:04:11.190Z,1.00
2019-05-14T16:06:55.603Z,1.10
2019-05-14T16:09:41.639Z,0.90
2019-05-14T16:12:28.672Z,1.10
2019-05-14T16:15:15.922Z,1.27
2019-05-14T16:18:09.668Z,1.40
2019-05-14T16:20:50.169Z,0.90
2019-05-14T16:23:38.599Z,0.90
2019-05-14T16:26:24.249Z,0.90
2019-05-14T16:29:10.305Z,1.03
2019-05-14T16:31:58.179Z,1.20
2019-05-14T16:34:44.375Z,0.93
2019-05-14T16:37:30.533Z,1.03
2019-05-14T16:40:18.959Z,0.90
2019-05-14T16:43:04.553Z,1.07
2019-05-14T16:45:50.793Z,0.90
2019-05-14T16:48:39.404Z,1.00
2019-05-14T16:51:24.947Z,0.87
2019-05-14T16:54:11.049Z,0.90
2019-05-14T16:56:57.025Z,1.00
2019-05-14T16:59:43.129Z,0.90
2019-05-14T17:02:29.728Z,1.00
2019-05-14T17:05:15.966Z,1.10
2019-05-14T17:08:01.978Z,0.90
2019-05-14T17:10:48.369Z,1.10
2019-05-14T17:13:34.669Z,0.90
2019-05-14T17:16:20.814Z,1.00
2019-05-14T17:19:09.155Z,0.80
2019-05-14T17:21:54.998Z,0.90
2019-05-14T17:24:40.980Z,1.00
2019-05-14T17:27:28.545Z,0.77
2019-05-14T17:30:18.184Z,1.20
2019-05-14T17:33:04.007Z,1.10
2019-05-14T17:35:50.198Z,1.00
2019-05-14T17:38:38.878Z,1.03
2019-05-14T17:41:24.257Z,1.00
2019-05-14T17:44:10.422Z,0.80
2019-05-14T17:46:58.544Z,0.70
2019-05-14T17:49:44.513Z,0.97
2019-05-14T17:52:30.645Z,0.90
2019-05-14T17:55:18.739Z,0.93
2019-05-14T17:58:05.040Z,1.07
2019-05-14T18:00:51.108Z,1.00
2019-05-14T18:03:39.680Z,0.77
2019-05-14T18:06:25.236Z,1.00
2019-05-14T18:09:11.361Z,1.00
2019-05-14T18:11:58.583Z,0.93
2019-05-14T18:14:44.997Z,0.80
2019-05-14T18:17:31.167Z,1.10
2019-05-14T18:20:17.183Z,1.20
2019-05-14T18:23:03.186Z,1.07
2019-05-14T18:26:03.393Z,0.97
2019-05-14T18:28:38.306Z,1.00
2019-05-14T18:31:24.558Z,1.00
2019-05-14T18:34:10.621Z,0.90
2019-05-14T18:37:00.085Z,0.90
2019-05-14T18:39:48.161Z,1.00
2019-05-14T18:42:33.877Z,0.90
2019-05-14T18:45:20.035Z,1.10
2019-05-14T18:48:08.501Z,1.03
2019-05-14T18:50:55.580Z,1.10
2019-05-14T18:53:41.717Z,1.10
2019-05-14T18:56:29.190Z,1.40
2019-05-14T18:59:20.949Z,1.00
2019-05-14T19:02:03.877Z,1.20
2019-05-14T19:04:49.932Z,1.00
2019-05-14T19:07:35.977Z,1.30
2019-05-14T19:10:22.072Z,1.00
2019-05-14T19:13:08.809Z,1.00
2019-05-14T19:15:55.123Z,1.30
2019-05-14T19:18:41.264Z,1.30
2019-05-14T19:21:28.609Z,1.30
2019-05-14T19:24:14.958Z,1.27
2019-05-14T19:27:01.129Z,1.40
2019-05-14T19:29:48.444Z,1.77
2019-05-14T19:32:34.963Z,1.07
2019-05-14T19:35:21.110Z,1.10
2019-05-14T19:38:08.906Z,1.30
2019-05-14T19:40:55.134Z,1.30
2019-05-14T19:43:41.364Z,1.10
2019-05-14T19:46:29.149Z,1.20
2019-05-14T19:49:15.292Z,1.30
2019-05-14T19:52:01.490Z,1.40
2019-05-14T19:54:48.870Z,1.13
2019-05-14T19:57:34.963Z,1.13
2019-05-14T20:00:23.533Z,1.10
2019-05-14T20:03:09.291Z,1.43
2019-05-14T20:05:55.396Z,1.23
2019-05-14T20:08:41.633Z,0.93
2019-05-14T20:11:28.974Z,0.90
2019-05-14T20:14:15.193Z,0.90
2019-05-14T20:17:01.368Z,1.30
2019-05-14T20:19:49.410Z,1.20
2019-05-14T20:22:35.359Z,1.00
2019-05-14T20:25:21.563Z,1.10
2019-05-14T20:28:08.152Z,1.20
2019-05-14T20:30:55.052Z,1.00
2019-05-14T20:33:41.165Z,1.10
2019-05-14T20:36:28.177Z,1.10
2019-05-14T20:39:14.134Z,1.27
2019-05-14T20:42:00.793Z,1.20
2019-05-14T20:44:49.013Z,1.10
2019-05-14T20:47:34.975Z,1.03
2019-05-14T20:50:21.171Z,1.00
2019-05-14T20:53:08.459Z,1.10
2019-05-14T20:55:54.693Z,1.07
2019-05-14T20:58:40.913Z,1.33
2019-05-14T21:01:29.046Z,1.10
2019-05-14T21:04:14.940Z,1.27
2019-05-14T21:07:01.225Z,1.17
2019-05-14T21:09:49.241Z,1.27
2019-05-14T21:12:35.226Z,1.20
2019-05-14T21:15:21.423Z,1.20
2019-05-14T21:18:08.384Z,1.10
2019-05-14T21:20:54.600Z,1.20
2019-05-14T21:23:40.716Z,1.10
2019-05-14T21:26:29.026Z,1.00
2019-05-14T21:29:14.753Z,1.03
2019-05-14T21:32:01.589Z,1.20
2019-05-14T21:34:49.108Z,1.20
2019-05-14T21:37:35.400Z,1.10
2019-05-14T21:40:21.525Z,1.13
2019-05-14T21:43:11.027Z,1.20
2019-05-14T21:45:55.504Z,1.20
2019-05-14T21:48:41.550Z,1.10
2019-05-14T21:51:28.334Z,1.20
2019-05-14T21:54:14.736Z,1.10
2019-05-14T21:57:01.314Z,1.17
2019-05-14T21:59:48.011Z,1.07
2019-05-14T22:02:35.028Z,1.33
2019-05-14T22:05:21.372Z,1.17
2019-05-14T22:08:08.839Z,1.27
2019-05-14T22:10:54.956Z,1.30
2019-05-14T22:13:41.125Z,1.30
2019-05-14T22:16:28.082Z,1.20
2019-05-14T22:19:14.049Z,1.07
2019-05-14T22:22:00.209Z,1.20
2019-05-14T22:24:46.238Z,1.20
2019-05-14T22:27:32.345Z,1.33
2019-05-14T22:30:20.726Z,1.20
2019-05-14T22:33:08.507Z,1.20
2019-05-14T22:35:55.263Z,1.10
2019-05-14T22:38:41.328Z,1.40
2019-05-14T22:41:29.076Z,1.40
2019-05-14T22:44:15.418Z,1.30
2019-05-14T22:47:02.199Z,1.20
2019-05-14T22:49:48.531Z,1.60
2019-05-14T22:52:34.647Z,1.37
2019-05-14T22:55:20.821Z,1.23
2019-05-14T22:58:09.949Z,1.23
2019-05-14T23:01:06.689Z,1.30
2019-05-14T23:03:42.975Z,1.30
2019-05-14T23:06:29.057Z,1.50
2019-05-14T23:09:18.490Z,1.50
2019-05-14T23:12:03.105Z,1.37
2019-05-14T23:14:49.143Z,1.50
2019-05-14T23:17:35.129Z,1.50
2019-05-14T23:20:21.517Z,1.20
2019-05-14T23:23:09.544Z,1.30
2019-05-14T23:25:58.900Z,1.27
2019-05-14T23:28:46.094Z,1.60
2019-05-14T23:31:33.405Z,1.23
2019-05-14T23:34:19.854Z,1.33
2019-05-14T23:37:08.230Z,1.20
2019-05-14T23:39:54.904Z,1.50
2019-05-14T23:42:41.085Z,1.30
2019-05-14T23:45:28.474Z,1.57
2019-05-14T23:48:15.014Z,1.20
2019-05-14T23:51:01.453Z,1.40
2019-05-14T23:53:48.342Z,1.40
2019-05-14T23:56:34.671Z,1.30
2019-05-14T23:59:21.190Z,1.37
